Time;durP1;ratioP1;P1;durP2;ratioP2;P2;SDS_P1;SDS_P2;PMS_P1;PMS_P2;Temp;Humidity;BMP_temperature;BMP_pressure;BME280_temperature;BME280_humidity;BME280_pressure;Samples;Min_cycle;Max_cycle;Signal;HPM_P1;HPM_P2
2021/10/13 00:00:33;;;;;;;2.50;1.70;;;;;;;;;;4879264;29;20072;-87
2021/10/13 00:02:59;;;;;;;2.75;2.40;;;;;;;;;;4894651;29;20095;-86
2021/10/13 00:05:25;;;;;;;4.45;1.98;;;;;;;;;;4890648;29;20021;-88
2021/10/13 00:07:51;;;;;;;2.75;1.60;;;;;;;;;;4894696;29;20044;-86
2021/10/13 00:10:17;;;;;;;2.78;2.13;;;;;;;;;;4892372;29;20482;-86
2021/10/13 00:12:43;;;;;;;4.07;2.00;;;;;;;;;;4890488;29;20044;-86
2021/10/13 00:15:11;;;;;;;10.70;3.80;;;;;;;;;;4894608;29;20493;-87
2021/10/13 00:17:37;;;;;;;2.38;1.77;;;;;;;;;;4888818;29;20028;-86
2021/10/13 00:20:07;;;;;;;6.00;1.30;;;12.80;68.00;;;;;;4893978;29;20049;-86
2021/10/13 00:22:33;;;;;;;4.78;2.00;;;;;;;;;;4891943;29;20051;-86
2021/10/13 00:24:59;;;;;;;2.95;2.10;;;;;;;;;;4891425;29;20120;-86
2021/10/13 00:27:25;;;;;;;2.92;1.88;;;;;;;;;;4894924;29;20032;-86
2021/10/13 00:29:51;;;;;;;2.92;1.75;;;;;;;;;;4884032;29;20029;-86
2021/10/13 00:32:17;;;;;;;3.67;2.05;;;;;;;;;;4882343;29;20032;-87
2021/10/13 00:34:43;;;;;;;4.53;2.83;;;;;;;;;;4892055;29;20088;-87
2021/10/13 00:37:09;;;;;;;2.67;2.00;;;;;;;;;;4894050;29;20541;-86
2021/10/13 00:39:35;;;;;;;5.85;2.88;;;;;;;;;;4894656;29;20029;-85
2021/10/13 00:42:01;;;;;;;4.05;2.13;;;;;;;;;;4888560;29;20676;-86
2021/10/13 00:44:27;;;;;;;6.95;1.65;;;;;;;;;;4887574;29;20025;-88
2021/10/13 00:46:53;;;;;;;5.78;2.10;;;;;;;;;;4878695;29;20051;-86
2021/10/13 00:49:19;;;;;;;3.22;2.13;;;;;;;;;;4874764;29;20036;-86
2021/10/13 00:51:45;;;;;;;4.85;1.88;;;;;;;;;;4890592;29;20040;-86
2021/10/13 00:54:11;;;;;;;2.88;1.50;;;;;;;;;;4894387;29;20012;-87
2021/10/13 00:56:37;;;;;;;3.25;1.50;;;;;;;;;;4889586;29;20033;-86
2021/10/13 00:59:04;;;;;;;5.03;2.05;;;;;;;;;;4889440;29;20460;-87
2021/10/13 01:01:35;;;;;;;3.47;2.63;;;12.80;67.60;;;;;;4893990;29;20084;-87
2021/10/13 01:04:07;;;;;;;4.53;2.20;;;;;;;;;;4894253;29;20503;-86
2021/10/13 01:06:54;;;;;;;5.72;1.85;;;12.90;67.30;;;;;;4894782;29;20037;-86
2021/10/13 01:09:22;;;;;;;3.47;2.10;;;;;;;;;;4893705;29;20093;-85
2021/10/13 01:12:24;;;;;;;3.15;2.10;;;13.50;67.30;;;;;;4893812;29;20033;-86
2021/10/13 01:15:18;;;;;;;3.40;2.08;;;12.80;67.30;;;;;;4889626;29;20044;-87
2021/10/13 01:17:56;;;;;;;4.25;1.95;;;12.80;67.00;;;;;;4865772;29;20433;-85
2021/10/13 01:20:53;;;;;;;6.10;2.67;;;12.90;66.90;;;;;;4893688;29;20061;-87
2021/10/13 01:23:19;;;;;;;4.15;2.10;;;;;;;;;;4887954;29;20029;-87
2021/10/13 01:25:45;;;;;;;6.32;2.03;;;;;;;;;;4883067;29;20029;-86
2021/10/13 01:28:28;;;;;;;6.28;2.17;;;12.90;67.30;;;;;;4893193;29;20056;-85
2021/10/13 01:31:01;;;;;;;1.40;1.27;;;12.90;67.00;;;;;;4884725;29;20501;-86
2021/10/13 01:33:40;;;;;;;4.00;2.00;;;12.90;67.00;;;;;;4892179;29;20033;-87
2021/10/13 01:36:08;;;;;;;2.10;1.73;;;12.80;68.00;;;;;;4894516;29;20470;-86
2021/10/13 01:38:41;;;;;;;3.08;1.92;;;12.80;67.40;;;;;;4883099;29;20040;-87
2021/10/13 01:41:07;;;;;;;3.92;2.00;;;;;;;;;;4886936;29;20127;-86
2021/10/13 01:43:36;;;;;;;4.47;2.25;;;12.80;67.60;;;;;;4891454;29;20033;-87
2021/10/13 01:46:04;;;;;;;5.05;1.83;;;12.90;67.70;;;;;;4891831;29;20028;-86
2021/10/13 01:48:32;;;;;;;5.88;2.03;;;12.90;67.70;;;;;;4889981;29;20081;-85
2021/10/13 01:50:58;;;;;;;7.95;2.08;;;;;;;;;;4872678;29;20092;-86
2021/10/13 01:53:25;;;;;;;2.22;1.65;;;;;;;;;;4889017;29;20071;-86
2021/10/13 01:55:53;;;;;;;4.85;2.80;;;12.90;67.60;;;;;;4876224;29;20032;-86
2021/10/13 01:58:20;;;;;;;6.70;2.42;;;;;;;;;;4893596;29;20065;-84
2021/10/13 02:00:48;;;;;;;3.35;2.30;;;12.90;68.10;;;;;;4893760;29;20558;-86
2021/10/13 02:03:22;;;;;;;2.83;1.70;;;12.90;67.70;;;;;;4892020;29;20040;-86
2021/10/13 02:05:50;;;;;;;8.73;2.05;;;12.90;67.80;;;;;;4892493;29;20032;-85
2021/10/13 02:08:19;;;;;;;3.70;2.05;;;12.90;68.90;;;;;;4893108;29;20080;-86
2021/10/13 02:10:48;;;;;;;4.93;2.55;;;12.90;68.60;;;;;;4894956;29;20532;-86
2021/10/13 02:13:16;;;;;;;2.65;1.95;;;12.90;68.80;;;;;;4882413;29;20076;-86
2021/10/13 02:15:45;;;;;;;2.95;1.63;;;12.80;68.50;;;;;;4896213;29;20032;-87
2021/10/13 02:18:16;;;;;;;4.80;1.75;;;12.80;68.50;;;;;;4900618;29;20063;-86
2021/10/13 02:20:43;;;;;;;5.75;2.08;;;12.90;69.20;;;;;;4890782;29;20810;-87
2021/10/13 02:23:11;;;;;;;7.22;2.20;;;12.80;70.20;;;;;;4896520;29;20135;-86
2021/10/13 02:25:39;;;;;;;4.28;2.05;;;12.80;70.70;;;;;;4894840;29;20028;-86
2021/10/13 02:28:20;;;;;;;2.70;1.77;;;12.90;70.90;;;;;;4896282;29;20067;-86
2021/10/13 02:30:46;;;;;;;8.07;2.42;;;;;;;;;;4891932;29;20024;-86
2021/10/13 02:33:12;;;;;;;3.67;2.47;;;;;;;;;;4883532;29;20538;-87
2021/10/13 02:35:38;;;;;;;3.55;2.08;;;;;;;;;;4890397;29;20112;-86
2021/10/13 02:38:05;;;;;;;7.43;2.85;;;;;;;;;;4896544;29;20120;-87
2021/10/13 02:40:31;;;;;;;5.18;2.35;;;;;;;;;;4878233;29;20075;-87
2021/10/13 02:42:57;;;;;;;4.90;2.78;;;;;;;;;;4896228;29;20439;-86
2021/10/13 02:45:23;;;;;;;4.57;2.30;;;;;;;;;;4897258;29;20060;-86
2021/10/13 02:47:55;;;;;;;7.00;2.13;;;12.90;70.30;;;;;;4896075;29;20071;-86
2021/10/13 02:50:24;;;;;;;2.40;1.55;;;12.90;70.60;;;;;;4890453;29;20081;-86
2021/10/13 02:52:55;;;;;;;2.08;1.75;;;;;;;;;;4885942;29;20051;-87
2021/10/13 02:55:36;;;;;;;3.25;1.95;;;12.80;71.80;;;;;;4895466;29;20032;-88
2021/10/13 02:58:08;;;;;;;3.22;2.30;;;;;;;;;;4894698;29;20025;-85
2021/10/13 03:00:35;;;;;;;10.40;3.08;;;12.70;71.70;;;;;;4896171;29;20573;-86
2021/10/13 03:03:23;;;;;;;4.15;2.10;;;12.70;71.80;;;;;;4891670;29;20077;-86
2021/10/13 03:05:51;;;;;;;3.67;2.50;;;12.60;72.00;;;;;;4891625;29;20116;-87
2021/10/13 03:08:20;;;;;;;;;;;12.60;71.90;;;;;;4895950;29;20024;-86
2021/10/13 03:10:48;;;;;;;4.57;2.47;;;12.70;71.80;;;;;;4891607;29;19911;-86
2021/10/13 03:13:18;;;;;;;2.90;1.63;;;12.60;72.10;;;;;;4880757;29;20032;-85
2021/10/13 03:15:44;;;;;;;5.20;2.38;;;;;;;;;;4875834;29;20084;-87
2021/10/13 03:18:15;;;;;;;3.43;1.70;;;12.80;72.30;;;;;;4875800;29;20040;-86
2021/10/13 03:20:42;;;;;;;7.78;3.15;;;12.80;72.40;;;;;;4886664;29;20763;-86
2021/10/13 03:23:08;;;;;;;2.60;1.70;;;;;;;;;;4895346;29;20036;-86
2021/10/13 03:25:34;;;;;;;4.53;1.80;;;;;;;;;;4894381;29;20624;-87
2021/10/13 03:28:02;;;;;;;1.88;1.42;;;12.70;72.00;;;;;;4878608;29;20070;-86
2021/10/13 03:30:28;;;;;;;;;;;12.70;72.30;;;;;;4880988;29;20496;-87
2021/10/13 03:32:54;;;;;;;6.53;2.15;;;;;;;;;;4882422;29;19919;-86
2021/10/13 03:35:26;;;;;;;9.15;3.15;;;12.70;72.00;;;;;;4884666;29;20028;-87
2021/10/13 03:37:52;;;;;;;2.38;1.65;;;12.80;72.70;;;;;;4875092;29;20056;-86
2021/10/13 03:40:19;;;;;;;8.88;1.95;;;;;;;;;;4892394;29;20051;-86
2021/10/13 03:42:45;;;;;;;4.00;2.00;;;;;;;;;;4892244;29;20033;-87
2021/10/13 03:45:18;;;;;;;5.65;1.70;;;12.70;72.40;;;;;;4895151;29;20036;-87
2021/10/13 03:47:45;;;;;;;5.22;2.05;;;;;;;;;;4890170;29;20028;-86
2021/10/13 03:50:11;;;;;;;1.40;0.98;;;12.80;72.60;;;;;;4890497;29;20024;-86
2021/10/13 03:52:38;;;;;;;2.78;1.60;;;12.80;72.10;;;;;;4895018;29;20033;-87
2021/10/13 03:55:06;;;;;;;3.05;1.85;;;12.80;72.10;;;;;;4894837;29;20506;-86
2021/10/13 03:57:32;;;;;;;2.75;1.77;;;;;;;;;;4879715;29;20021;-87
2021/10/13 03:59:58;;;;;;;2.28;1.88;;;;;;;;;;4894497;29;20044;-86
2021/10/13 04:02:24;;;;;;;4.22;2.55;;;;;;;;;;4894768;29;20043;-87
2021/10/13 04:04:50;;;;;;;7.13;2.25;;;;;;;;;;4890525;29;20033;-86
2021/10/13 04:07:16;;;;;;;4.90;1.65;;;;;;;;;;4896639;29;20544;-86
2021/10/13 04:09:42;;;;;;;2.35;1.80;;;;;;;;;;4895136;29;20044;-87
2021/10/13 04:12:08;;;;;;;4.40;1.58;;;;;;;;;;4890299;29;20035;-87
2021/10/13 04:14:34;;;;;;;4.15;2.58;;;;;;;;;;4890364;29;20036;-87
2021/10/13 04:17:00;;;;;;;2.95;2.03;;;;;;;;;;4871793;29;20029;-86
2021/10/13 04:19:26;;;;;;;4.85;2.35;;;;;;;;;;4874230;29;20033;-86
2021/10/13 04:21:52;;;;;;;2.90;2.08;;;;;;;;;;4894408;29;20040;-88
2021/10/13 04:24:18;;;;;;;4.45;1.92;;;;;;;;;;4876066;29;20067;-86
2021/10/13 04:26:44;;;;;;;3.42;2.50;;;;;;;;;;4887087;29;20029;-85
2021/10/13 04:29:10;;;;;;;2.55;1.73;;;;;;;;;;4886882;29;20029;-86
2021/10/13 04:31:36;;;;;;;8.07;4.20;;;;;;;;;;4892368;29;20108;-85
2021/10/13 04:34:02;;;;;;;2.92;2.40;;;;;;;;;;4894329;29;20037;-86
2021/10/13 04:36:28;;;;;;;7.35;1.92;;;;;;;;;;4894567;29;20073;-86
2021/10/13 04:38:54;;;;;;;3.17;1.80;;;;;;;;;;4889843;29;20070;-88
2021/10/13 04:41:20;;;;;;;2.70;1.88;;;;;;;;;;4894311;29;20037;-86
2021/10/13 04:43:46;;;;;;;4.80;2.92;;;;;;;;;;4890430;29;20025;-87
2021/10/13 04:46:12;;;;;;;4.18;2.10;;;;;;;;;;4893175;29;20033;-87
2021/10/13 04:48:38;;;;;;;3.90;2.13;;;;;;;;;;4894533;29;20057;-88
2021/10/13 04:51:04;;;;;;;2.58;2.08;;;;;;;;;;4889478;29;20586;-86
2021/10/13 04:53:30;;;;;;;2.38;1.95;;;;;;;;;;4875496;29;20025;-88
2021/10/13 04:55:56;;;;;;;3.20;2.20;;;;;;;;;;4889473;29;20115;-87
2021/10/13 04:58:22;;;;;;;3.03;2.30;;;;;;;;;;4893124;29;20036;-87
2021/10/13 05:00:48;;;;;;;10.93;2.88;;;;;;;;;;4890366;29;20028;-85
2021/10/13 05:03:14;;;;;;;3.38;2.60;;;;;;;;;;4893894;29;20071;-87
2021/10/13 05:05:40;;;;;;;5.13;2.40;;;;;;;;;;4892924;29;20064;-87
2021/10/13 05:08:07;;;;;;;6.68;2.63;;;;;;;;;;4892756;29;20040;-87
2021/10/13 05:10:33;;;;;;;6.25;3.03;;;12.70;73.60;;;;;;4892045;29;20038;-87
2021/10/13 05:12:59;;;;;;;3.03;2.05;;;;;;;;;;4893537;29;20462;-86
2021/10/13 05:15:25;;;;;;;10.07;2.65;;;;;;;;;;4893603;29;20520;-87
2021/10/13 05:17:51;;;;;;;3.53;1.77;;;;;;;;;;4889205;29;20037;-87
2021/10/13 05:20:17;;;;;;;2.30;1.88;;;;;;;;;;4888236;29;20116;-85
2021/10/13 05:22:43;;;;;;;13.77;3.65;;;;;;;;;;4873477;29;20502;-86
2021/10/13 05:25:09;;;;;;;9.45;2.10;;;;;;;;;;4890027;29;20044;-86
2021/10/13 05:27:35;;;;;;;4.20;1.90;;;;;;;;;;4892059;29;20017;-86
2021/10/13 05:30:01;;;;;;;2.95;1.73;;;;;;;;;;4891624;29;20043;-87
2021/10/13 05:32:27;;;;;;;2.75;1.80;;;;;;;;;;4893249;29;20025;-87
2021/10/13 05:34:53;;;;;;;3.63;1.70;;;;;;;;;;4889857;29;20036;-86
2021/10/13 05:37:19;;;;;;;2.40;2.00;;;;;;;;;;4888480;29;20471;-86
2021/10/13 05:39:45;;;;;;;3.72;2.08;;;;;;;;;;4891322;29;20093;-86
2021/10/13 05:42:11;;;;;;;11.80;2.38;;;;;;;;;;4889549;29;20029;-87
2021/10/13 05:44:37;;;;;;;3.90;1.67;;;;;;;;;;4893064;29;20214;-86
2021/10/13 05:47:03;;;;;;;3.15;2.25;;;;;;;;;;4893069;29;20044;-86
2021/10/13 05:49:29;;;;;;;3.35;1.50;;;;;;;;;;4892185;29;20485;-86
2021/10/13 05:51:55;;;;;;;2.50;2.10;;;;;;;;;;4895243;29;20056;-84
2021/10/13 05:54:21;;;;;;;3.60;1.95;;;;;;;;;;4887393;29;20051;-89
2021/10/13 05:56:51;;;;;;;3.88;2.10;;;;;;;;;;4878899;29;20029;-88
2021/10/13 05:59:17;;;;;;;8.82;1.35;;;;;;;;;;4895558;29;20116;-90
2021/10/13 06:01:44;;;;;;;4.45;1.65;;;;;;;;;;4899147;29;20063;-91
2021/10/13 06:04:10;;;;;;;1.40;1.00;;;;;;;;;;4898009;29;20024;-88
2021/10/13 06:06:35;;;;;;;4.55;1.80;;;;;;;;;;4898901;29;20029;-90
2021/10/13 06:09:01;;;;;;;9.90;3.17;;;;;;;;;;4899280;29;20056;-89
2021/10/13 06:11:27;;;;;;;3.03;2.00;;;;;;;;;;4898224;29;20035;-89
2021/10/13 06:13:53;;;;;;;2.08;1.55;;;;;;;;;;4898957;29;20040;-90
2021/10/13 06:16:23;;;;;;;3.42;1.67;;;;;;;;;;4898813;29;20513;-89
2021/10/13 06:18:50;;;;;;;4.30;2.03;;;;;;;;;;4898025;29;20068;-89
2021/10/13 06:21:18;;;;;;;3.78;2.40;;;;;;;;;;4898547;29;20044;-89
2021/10/13 06:23:44;;;;;;;2.60;1.65;;;;;;;;;;4879071;29;20086;-88
2021/10/13 06:26:10;;;;;;;7.88;1.55;;;;;;;;;;4886649;29;20037;-87
2021/10/13 06:28:36;;;;;;;2.92;1.73;;;;;;;;;;4895232;29;20508;-87
2021/10/13 06:31:02;;;;;;;5.65;1.92;;;;;;;;;;4894951;29;20036;-89
2021/10/13 06:33:28;;;;;;;3.67;1.85;;;;;;;;;;4895016;29;20033;-89
2021/10/13 06:35:55;;;;;;;2.60;1.52;;;;;;;;;;4897631;29;20039;-89
2021/10/13 06:38:21;;;;;;;5.68;2.15;;;;;;;;;;4897244;29;20501;-89
2021/10/13 06:40:47;;;;;;;2.42;1.30;;;;;;;;;;4895425;29;20054;-89
2021/10/13 06:43:13;;;;;;;7.80;2.25;;;;;;;;;;4896573;29;20703;-87
2021/10/13 06:45:39;;;;;;;4.45;1.88;;;;;;;;;;4896595;29;20036;-87
2021/10/13 06:48:06;;;;;;;1.90;1.50;;;12.90;70.50;;;;;;4895671;29;20037;-89
2021/10/13 06:50:33;;;;;;;3.70;2.00;;;13.00;70.50;;;;;;4895776;29;20043;-88
2021/10/13 06:52:59;;;;;;;2.75;2.22;;;;;;;;;;4896688;29;20045;-88
2021/10/13 06:55:25;;;;;;;2.88;2.22;;;;;;;;;;4896029;29;20516;-88
2021/10/13 06:57:51;;;;;;;1.73;1.63;;;;;;;;;;4896183;29;20106;-88
2021/10/13 07:00:17;;;;;;;1.77;1.25;;;;;;;;;;4893225;29;20066;-88
2021/10/13 07:02:43;;;;;;;2.85;1.65;;;;;;;;;;4898365;29;20025;-91
2021/10/13 07:05:09;;;;;;;2.45;1.60;;;;;;;;;;4882147;29;20074;-92
2021/10/13 07:07:45;;;;;;;2.05;1.35;;;13.00;70.00;;;;;;4864632;29;20048;-92
2021/10/13 07:10:11;;;;;;;4.53;1.65;;;13.00;70.00;;;;;;4893343;29;20035;-93
2021/10/13 07:12:38;;;;;;;3.20;1.92;;;;;;;;;;4898086;29;20474;-93
2021/10/13 07:15:05;;;;;;;2.45;1.70;;;13.10;69.50;;;;;;4898403;29;20032;-92
2021/10/13 07:17:31;;;;;;;2.85;1.75;;;;;;;;;;4897699;29;20029;-93
2021/10/13 07:19:59;;;;;;;2.55;1.50;;;;;;;;;;4887181;29;20075;-92
2021/10/13 07:22:26;;;;;;;2.13;1.50;;;;;;;;;;4885972;29;20051;-93
2021/10/13 07:24:52;;;;;;;3.00;1.48;;;;;;;;;;4897973;29;20482;-92
2021/10/13 07:27:18;;;;;;;7.38;1.70;;;;;;;;;;4897980;29;20039;-91
2021/10/13 07:29:45;;;;;;;3.75;1.63;;;;;;;;;;4894152;29;20048;-91
2021/10/13 07:32:12;;;;;;;3.13;2.17;;;;;;;;;;4890277;29;20478;-92
2021/10/13 07:34:38;;;;;;;1.98;1.70;;;;;;;;;;4897979;29;20043;-91
2021/10/13 07:37:04;;;;;;;2.10;1.65;;;13.00;69.00;;;;;;4881162;29;20405;-91
2021/10/13 07:39:31;;;;;;;4.10;1.83;;;;;;;;;;4897271;29;20025;-93
2021/10/13 07:41:57;;;;;;;3.50;2.55;;;;;;;;;;4898100;29;20037;-92
2021/10/13 07:44:23;;;;;;;2.72;1.73;;;;;;;;;;4894211;29;20033;-92
2021/10/13 07:46:49;;;;;;;2.88;1.75;;;;;;;;;;4887727;29;20413;-93
2021/10/13 07:49:15;;;;;;;2.67;1.85;;;;;;;;;;4895228;29;20029;-93
2021/10/13 07:51:41;;;;;;;1.77;1.60;;;;;;;;;;4896330;29;20080;-90
2021/10/13 07:54:07;;;;;;;1.95;1.63;;;;;;;;;;4894867;29;20032;-89
2021/10/13 07:56:33;;;;;;;2.75;2.22;;;;;;;;;;4903097;29;20107;-91
2021/10/13 07:58:59;;;;;;;1.25;1.10;;;;;;;;;;4885773;29;20039;-93
2021/10/13 08:01:26;;;;;;;1.20;1.08;;;;;;;;;;4899201;29;20072;-92
2021/10/13 08:03:54;;;;;;;1.80;1.30;;;;;;;;;;4896341;29;20048;-93
2021/10/13 08:06:20;;;;;;;3.58;1.27;;;;;;;;;;4896522;29;20048;-91
2021/10/13 08:08:46;;;;;;;2.70;1.13;;;;;;;;;;4880260;29;20127;-92
2021/10/13 08:11:12;;;;;;;1.25;1.08;;;;;;;;;;4873480;29;20047;-90
2021/10/13 08:13:39;;;;;;;2.00;0.93;;;;;;;;;;4885628;29;20033;-91
2021/10/13 08:16:05;;;;;;;6.57;1.00;;;;;;;;;;4899949;29;20040;-91
2021/10/13 08:18:31;;;;;;;1.98;1.23;;;;;;;;;;4903753;29;20032;-91
2021/10/13 08:20:57;;;;;;;1.77;0.80;;;;;;;;;;4900188;29;20057;-92
2021/10/13 08:23:24;;;;;;;2.38;0.85;;;;;;;;;;4888616;29;20049;-88
2021/10/13 08:25:51;;;;;;;1.17;1.00;;;;;;;;;;4891793;29;20387;-89
2021/10/13 08:28:16;;;;;;;1.25;1.02;;;;;;;;;;4893657;29;20379;-90
2021/10/13 08:30:43;;;;;;;2.20;0.77;;;;;;;;;;4892526;29;20105;-89
2021/10/13 08:33:09;;;;;;;6.97;1.60;;;;;;;;;;4899233;29;20036;-91
2021/10/13 08:35:35;;;;;;;1.42;1.20;;;;;;;;;;4900953;29;20131;-88
2021/10/13 08:38:01;;;;;;;0.70;0.70;;;;;;;;;;4891949;29;20131;-87
2021/10/13 08:40:27;;;;;;;0.93;0.60;;;;;;;;;;4885875;29;20412;-88
2021/10/13 08:42:57;;;;;;;0.50;0.50;;;21.30;43.80;;;;;;4883722;29;20119;-87
2021/10/13 08:45:25;;;;;;;2.20;0.90;;;21.80;42.60;;;;;;4883901;29;20036;-87
2021/10/13 08:47:51;;;;;;;;;;;21.80;42.10;;;;;;4885216;29;20145;-88
2021/10/13 08:50:17;;;;;;;1.85;1.20;;;;;;;;;;4886885;29;20010;-87
2021/10/13 08:52:43;;;;;;;3.22;0.90;;;;;;;;;;4880939;29;20069;-87
2021/10/13 08:55:09;;;;;;;1.27;0.88;;;;;;;;;;4889672;29;20509;-88
2021/10/13 08:57:35;;;;;;;2.05;1.02;;;;;;;;;;4875454;29;20036;-88
2021/10/13 09:00:01;;;;;;;2.33;0.98;;;;;;;;;;4887709;29;20108;-88
2021/10/13 09:02:42;;;;;;;2.70;1.10;;;21.60;42.30;;;;;;4874704;29;20493;-88
2021/10/13 09:05:11;;;;;;;1.05;0.70;;;;;;;;;;4881701;29;20852;-88
2021/10/13 09:07:37;;;;;;;1.50;0.90;;;21.40;43.40;;;;;;4884400;29;20113;-89
2021/10/13 09:10:04;;;;;;;1.83;0.57;;;21.50;42.80;;;;;;4883586;29;20032;-88
2021/10/13 09:12:30;;;;;;;1.45;0.77;;;;;;;;;;4884396;29;20051;-90
2021/10/13 09:15:26;;;;;;;1.48;1.00;;;21.20;43.70;;;;;;4882053;29;20032;-88
2021/10/13 09:17:55;;;;;;;1.70;0.98;;;;;;;;;;4878476;29;20071;-88
2021/10/13 09:20:23;;;;;;;5.18;1.30;;;;;;;;;;4892510;29;20056;-88
2021/10/13 09:23:14;;;;;;;2.38;1.17;;;21.90;42.10;;;;;;4897491;29;20043;-89
2021/10/13 09:25:41;;;;;;;3.97;1.52;;;;;;;;;;4884960;29;20060;-87
2021/10/13 09:28:07;;;;;;;1.55;1.05;;;;;;;;;;4892729;29;20033;-88
2021/10/13 09:30:40;;;;;;;2.03;1.10;;;22.80;40.20;;;;;;4889899;29;20418;-88
2021/10/13 09:33:12;;;;;;;2.00;1.15;;;;;;;;;;4892849;29;20036;-87
2021/10/13 09:35:49;;;;;;;6.82;0.95;;;23.20;39.40;;;;;;4890946;29;20029;-88
2021/10/13 09:38:17;;;;;;;;;;;23.20;39.20;;;;;;4860690;29;20038;-88
2021/10/13 09:40:43;;;;;;;2.38;1.42;;;;;;;;;;4861101;29;19923;-86
2021/10/13 09:43:27;;;;;;;2.75;0.70;;;;;;;;;;4875857;29;20040;-89
2021/10/13 09:46:01;;;;;;;5.20;0.88;;;23.20;38.10;;;;;;4879412;29;20093;-89
2021/10/13 09:48:27;;;;;;;0.80;0.68;;;;;;;;;;4878756;29;20085;-89
2021/10/13 09:50:53;;;;;;;1.67;1.05;;;;;;;;;;4871986;29;20029;-90
2021/10/13 09:53:30;;;;;;;1.98;1.00;;;23.70;37.40;;;;;;4861946;29;20575;-89
2021/10/13 09:55:55;;;;;;;;;;;23.90;38.20;;;;;;4870048;29;20499;-89
2021/10/13 09:58:26;;;;;;;5.70;1.10;;;23.80;36.80;;;;;;4870602;29;19916;-89
2021/10/13 10:01:18;;;;;;;2.33;1.02;;;23.40;37.20;;;;;;4880957;29;20473;-89
2021/10/13 10:03:45;;;;;;;1.92;1.13;;;;;;;;;;4869442;29;20041;-88
2021/10/13 10:06:12;;;;;;;1.77;0.95;;;;;;;;;;4877412;29;20402;-88
2021/10/13 10:08:53;;;;;;;1.33;0.53;;;;;;;;;;4874761;29;20561;-89
2021/10/13 10:11:37;;;;;;;0.63;0.60;;;23.10;38.30;;;;;;4874594;29;20120;-88
2021/10/13 10:14:04;;;;;;;1.88;0.90;;;;;;;;;;4884729;29;20068;-91
2021/10/13 10:16:39;;;;;;;1.42;1.20;;;;;;;;;;4861806;29;20025;-90
2021/10/13 10:19:25;;;;;;;1.58;0.88;;;22.30;52.20;;;;;;4874333;29;20048;-88
2021/10/13 10:21:53;;;;;;;2.65;0.98;;;21.70;39.70;;;;;;4872664;29;20069;-88
2021/10/13 10:24:27;;;;;;;8.43;1.13;;;21.10;40.50;;;;;;4879863;29;20020;-88
2021/10/13 10:27:13;;;;;;;0.93;0.80;;;20.40;42.10;;;;;;4871694;29;20041;-89
2021/10/13 10:29:39;;;;;;;5.28;1.00;;;;;;;;;;4872082;29;20029;-88
2021/10/13 10:32:18;;;;;;;3.30;1.73;;;20.00;43.70;;;;;;4876029;29;20055;-88
2021/10/13 10:35:03;;;;;;;4.50;1.20;;;20.00;43.80;;;;;;4877883;29;20052;-89
2021/10/13 10:37:49;;;;;;;1.20;0.80;;;20.10;44.90;;;;;;4874499;29;20025;-90
2021/10/13 10:40:15;;;;;;;5.88;1.33;;;;;;;;;;4877295;29;20128;-92
2021/10/13 10:42:44;;;;;;;1.58;1.02;;;;;;;;;;4878646;29;21169;-92
2021/10/13 10:45:18;;;;;;;3.38;1.00;;;19.70;44.60;;;;;;4877238;29;20548;-90
2021/10/13 10:47:56;;;;;;;1.42;0.90;;;19.60;62.30;;;;;;4878421;29;20128;-90
2021/10/13 10:50:34;;;;;;;5.55;1.70;;;;;;;;;;4876875;29;20037;-89
2021/10/13 10:53:10;;;;;;;1.42;0.70;;;19.70;44.90;;;;;;4874354;29;20037;-85
2021/10/13 10:55:41;;;;;;;1.25;0.80;;;19.80;42.90;;;;;;4854335;29;20025;-89
2021/10/13 10:58:18;;;;;;;1.48;0.95;;;19.70;42.50;;;;;;4875793;29;20044;-86
2021/10/13 11:00:44;;;;;;;2.17;0.90;;;19.60;43.40;;;;;;4877558;29;20037;-86
2021/10/13 11:03:25;;;;;;;3.33;0.90;;;19.30;43.50;;;;;;4872961;29;20487;-85
2021/10/13 11:05:54;;;;;;;3.22;1.90;;;19.00;44.60;;;;;;4870174;29;20037;-87
2021/10/13 11:08:20;;;;;;;2.25;1.20;;;;;;;;;;4874314;29;20029;-85
2021/10/13 11:10:46;;;;;;;1.77;1.55;;;;;;;;;;4871867;29;20037;-88
2021/10/13 11:13:12;;;;;;;1.50;1.20;;;;;;;;;;4872890;29;20800;-86
2021/10/13 11:15:39;;;;;;;6.80;1.83;;;;;;;;;;4876378;29;20420;-86
2021/10/13 11:18:15;;;;;;;5.65;1.75;;;19.30;44.20;;;;;;4875137;29;20135;-86
2021/10/13 11:20:42;;;;;;;1.92;1.10;;;;;;;;;;4871318;29;20072;-85
2021/10/13 11:23:08;;;;;;;2.22;1.55;;;;;;;;;;4861619;29;20033;-85
2021/10/13 11:25:34;;;;;;;1.63;1.20;;;;;;;;;;4867293;29;20033;-87
2021/10/13 11:28:01;;;;;;;2.97;1.58;;;18.50;46.10;;;;;;4866015;29;20282;-86
2021/10/13 11:30:30;;;;;;;2.00;1.50;;;;;;;;;;4860286;29;20094;-85
2021/10/13 11:32:57;;;;;;;4.22;2.13;;;;;;;;;;4856973;29;20033;-86
2021/10/13 11:35:23;;;;;;;2.70;1.30;;;;;;;;;;4875653;29;20803;-85
2021/10/13 11:37:50;;;;;;;3.55;1.73;;;;;;;;;;4857139;29;20032;-85
2021/10/13 11:40:17;;;;;;;2.97;1.75;;;;;;;;;;4866646;29;20041;-85
2021/10/13 11:42:43;;;;;;;2.75;1.42;;;;;;;;;;4870525;29;20040;-87
2021/10/13 11:45:13;;;;;;;5.13;2.13;;;18.40;45.90;;;;;;4873655;29;20037;-87
2021/10/13 11:47:39;;;;;;;1.40;1.30;;;;;;;;;;4870303;29;20040;-85
2021/10/13 11:50:06;;;;;;;4.05;1.42;;;;;;;;;;4865730;29;20035;-87
2021/10/13 11:52:33;;;;;;;3.60;1.45;;;18.60;47.90;;;;;;4868528;29;20029;-85
2021/10/13 11:55:00;;;;;;;1.48;0.93;;;18.70;46.40;;;;;;4864018;29;20032;-86
2021/10/13 11:57:26;;;;;;;1.80;1.17;;;;;;;;;;4862255;29;20025;-86
2021/10/13 12:00:09;;;;;;;2.28;1.02;;;;;;;;;;4868625;29;20054;-87
2021/10/13 12:02:35;;;;;;;3.80;1.48;;;;;;;;;;4869589;29;20040;-86
2021/10/13 12:05:07;;;;;;;2.70;1.88;;;19.10;45.40;;;;;;4855746;29;20036;-87
2021/10/13 12:07:44;;;;;;;3.75;1.08;;;19.10;64.80;;;;;;4869841;29;20032;-87
2021/10/13 12:10:11;;;;;;;3.75;2.40;;;19.20;46.30;;;;;;4874955;29;20033;-86
2021/10/13 12:12:37;;;;;;;10.20;1.95;;;;;;;;;;4866991;29;20041;-86
2021/10/13 12:15:20;;;;;;;0.95;0.80;;;18.90;44.20;;;;;;4870476;29;20025;-86
2021/10/13 12:17:46;;;;;;;1.73;1.25;;;;;;;;;;4870578;29;20151;-87
2021/10/13 12:20:19;;;;;;;1.67;1.10;;;17.70;42.50;;;;;;4870042;29;20039;-85
2021/10/13 12:22:48;;;;;;;1.60;1.15;;;17.70;44.30;;;;;;4852541;29;20056;-86
2021/10/13 12:25:29;;;;;;;3.58;1.30;;;17.70;44.80;;;;;;4870215;29;20130;-87
2021/10/13 12:27:56;;;;;;;1.00;0.80;;;;;;;;;;4866326;29;20474;-86
2021/10/13 12:30:29;;;;;;;1.35;0.80;;;18.10;44.20;;;;;;4867315;29;20056;-86
2021/10/13 12:33:06;;;;;;;2.88;0.93;;;;;;;;;;4866537;29;20033;-86
2021/10/13 12:35:32;;;;;;;2.65;1.67;;;18.50;44.60;;;;;;4870315;29;20045;-87
2021/10/13 12:37:59;;;;;;;1.25;0.73;;;;;;;;;;4864738;29;20039;-86
2021/10/13 12:40:25;;;;;;;3.95;1.10;;;;;;;;;;4877875;29;20068;-86
2021/10/13 12:42:51;;;;;;;5.38;0.70;;;;;;;;;;4870565;29;20033;-85
2021/10/13 12:45:24;;;;;;;2.83;0.65;;;;;;;;;;4845745;29;20439;-86
2021/10/13 12:47:50;;;;;;;1.15;0.80;;;;;;;;;;4863724;29;20104;-85
2021/10/13 12:50:18;;;;;;;7.30;1.45;;;;;;;;;;4863470;29;20034;-86
2021/10/13 12:52:44;;;;;;;2.17;1.38;;;;;;;;;;4871442;29;20029;-85
2021/10/13 12:55:10;;;;;;;1.63;0.70;;;;;;;;;;4864798;29;20117;-86
2021/10/13 12:57:36;;;;;;;1.10;1.00;;;;;;;;;;4868010;29;20413;-85
2021/10/13 13:00:05;;;;;;;1.23;0.77;;;17.90;44.40;;;;;;4865358;29;20033;-86
2021/10/13 13:02:31;;;;;;;1.88;0.88;;;;;;;;;;4865874;29;20498;-86
2021/10/13 13:04:56;;;;;;;3.47;1.30;;;;;;;;;;4867952;29;20053;-85
2021/10/13 13:07:22;;;;;;;3.35;1.65;;;;;;;;;;4844943;29;20121;-87
2021/10/13 13:09:48;;;;;;;1.58;0.85;;;;;;;;;;4867417;29;20029;-87
2021/10/13 13:12:14;;;;;;;2.67;1.80;;;;;;;;;;4870957;29;20033;-87
2021/10/13 13:14:41;;;;;;;1.20;1.10;;;;;;;;;;4869512;29;20089;-85
2021/10/13 13:17:08;;;;;;;0.70;0.40;;;;;;;;;;4863572;29;20399;-86
2021/10/13 13:19:34;;;;;;;0.85;0.80;;;17.90;40.10;;;;;;4849801;29;20033;-87
2021/10/13 13:22:00;;;;;;;1.48;0.85;;;;;;;;;;4869103;29;20414;-85
2021/10/13 13:24:26;;;;;;;3.55;1.08;;;;;;;;;;4868076;29;20021;-86
2021/10/13 13:26:53;;;;;;;1.70;0.70;;;;;;;;;;4861744;29;20533;-85
2021/10/13 13:29:19;;;;;;;0.75;0.70;;;;;;;;;;4869469;29;20032;-86
2021/10/13 13:31:47;;;;;;;0.93;0.70;;;17.70;42.50;;;;;;4861271;29;20044;-85
2021/10/13 13:34:13;;;;;;;2.10;1.08;;;;;;;;;;4860125;29;20029;-85
2021/10/13 13:36:40;;;;;;;1.02;0.80;;;17.40;41.10;;;;;;4871211;29;20121;-84
2021/10/13 13:39:07;;;;;;;1.27;0.80;;;;;;;;;;4868327;29;20029;-84
2021/10/13 13:41:32;;;;;;;2.42;0.90;;;;;;;;;;4864728;29;20059;-88
2021/10/13 13:43:58;;;;;;;4.93;0.65;;;;;;;;;;4864252;29;20033;-87
2021/10/13 13:46:26;;;;;;;2.28;1.08;;;;;;;;;;4869201;29;20037;-85
2021/10/13 13:48:52;;;;;;;1.52;0.65;;;;;;;;;;4869879;29;20039;-87
2021/10/13 13:51:18;;;;;;;0.55;0.52;;;;;;;;;;4861519;29;20045;-86
2021/10/13 13:53:45;;;;;;;3.35;2.35;;;;;;;;;;4857503;29;20029;-84
2021/10/13 13:56:11;;;;;;;1.85;1.05;;;;;;;;;;4863964;29;20046;-86
2021/10/13 13:58:40;;;;;;;1.00;0.80;;;17.50;44.10;;;;;;4865070;29;20034;-84
2021/10/13 14:01:06;;;;;;;0.90;0.82;;;;;;;;;;4869754;29;20505;-86
2021/10/13 14:03:32;;;;;;;1.05;0.80;;;;;;;;;;4849442;29;20123;-86
2021/10/13 14:05:58;;;;;;;2.70;2.08;;;;;;;;;;4862800;29;20037;-86
2021/10/13 14:08:24;;;;;;;1.40;0.93;;;;;;;;;;4866860;29;20105;-86
2021/10/13 14:10:52;;;;;;;3.00;1.63;;;;;;;;;;4880212;29;20064;-85
2021/10/13 14:13:18;;;;;;;0.93;0.85;;;;;;;;;;4871346;29;20038;-86